weather.gov     
National Weather Service

Terminal Aerodrome Forecast
NWS Homepage
This page is being discontinued on March 12, 2014.
The same data is available at this site. Please update your bookmarks.
Thank you, and we apologize for the inconvenience.
Please send an email to SR-SRH.Webmaster@noaa.gov with any concerns.


Current Version
Previous Version:    01  02  03  04  05  06  07  08  09  10  11  12  13  14  15  16  17  18  19  20  21  22  23  24  25  26  27  28  29  30  
   31  32  33  34  35  36  37  38  39  40  41  42  43  44  45  46  47  
[Printable]
146
FTUS43 KARX 252321 CCA
TAFRST
TAF COR
KRST 252321Z 2600/2624 VRB04KT P6SM BKN015
     FM260400 19008KT P6SM BKN015
     FM261100 20014KT 4SM -SN BR OVC006
      TEMPO 2613/2615 2SM -FZDZ BKN004
     FM261500 24014G21KT 4SM BR OVC006
     FM261800 29014KT 4SM BR OVC006
     FM262100 30015KT P6SM OVC012=




146
FTUS43 KARX 252321 CCA
TAFRST
TAF COR
KRST 252321Z 2600/2624 VRB04KT P6SM BKN015
     FM260400 19008KT P6SM BKN015
     FM261100 20014KT 4SM -SN BR OVC006
      TEMPO 2613/2615 2SM -FZDZ BKN004
     FM261500 24014G21KT 4SM BR OVC006
     FM261800 29014KT 4SM BR OVC006
     FM262100 30015KT P6SM OVC012=


U.S. Dept. of Commerce
NOAA National Weather Service
1325 East West Highway
Silver Spring, MD 20910
E-mail: w-nws.webmaster@noaa.gov
Page last modified: May 16, 2007
NATIONAL WEATHER SERVICE: for Safety, for Work, for Fun - FOR LIFE